createdAt,value
2023-01-21T00:00:21.320Z,0.00
2023-01-21T00:01:21.300Z,0.00
2023-01-21T00:02:21.349Z,0.00
2023-01-21T00:03:21.325Z,0.00
2023-01-21T00:04:21.293Z,0.00
2023-01-21T00:05:21.264Z,0.00
2023-01-21T00:06:21.248Z,0.00
2023-01-21T00:07:21.242Z,0.00
2023-01-21T00:08:21.247Z,0.00
2023-01-21T00:09:21.245Z,0.00
2023-01-21T00:10:21.218Z,0.00
2023-01-21T00:11:21.209Z,0.00
2023-01-21T00:12:21.189Z,0.00
2023-01-21T00:13:21.188Z,0.00
2023-01-21T00:14:21.169Z,0.00
2023-01-21T00:15:21.185Z,0.00
2023-01-21T00:16:21.141Z,0.00
2023-01-21T00:17:21.134Z,0.00
2023-01-21T00:18:21.146Z,0.00
2023-01-21T00:19:21.116Z,0.00
2023-01-21T00:20:21.099Z,0.00
2023-01-21T00:21:21.108Z,0.00
2023-01-21T00:22:21.085Z,0.00
2023-01-21T00:23:21.075Z,0.00
2023-01-21T00:24:21.058Z,0.00
2023-01-21T00:25:21.076Z,0.00
2023-01-21T00:26:21.034Z,0.00
2023-01-21T00:27:21.025Z,0.00
2023-01-21T00:28:21.022Z,0.00
2023-01-21T00:29:21.008Z,0.00
2023-01-21T00:30:21.013Z,0.00
2023-01-21T00:31:21.159Z,0.00
2023-01-21T00:32:20.973Z,0.00
2023-01-21T00:33:20.964Z,0.00
2023-01-21T00:34:20.989Z,0.00
2023-01-21T00:35:20.952Z,0.00
2023-01-21T00:36:20.929Z,0.00
2023-01-21T00:37:20.922Z,0.00
2023-01-21T00:38:20.931Z,0.00
2023-01-21T00:39:20.900Z,0.00
2023-01-21T00:40:20.886Z,0.00
2023-01-21T00:41:20.879Z,0.00
2023-01-21T00:42:20.865Z,0.00
2023-01-21T00:43:20.891Z,0.00
2023-01-21T00:44:20.859Z,0.00
2023-01-21T00:45:20.856Z,0.00
2023-01-21T00:46:20.938Z,0.00
2023-01-21T00:47:20.815Z,0.00
2023-01-21T00:48:20.806Z,0.00
2023-01-21T00:49:20.805Z,0.00
2023-01-21T00:50:20.802Z,0.00
2023-01-21T00:51:20.818Z,0.00
2023-01-21T00:52:20.755Z,0.00
2023-01-21T00:53:20.749Z,0.00
2023-01-21T00:54:20.765Z,0.00
2023-01-21T00:55:20.728Z,0.00
2023-01-21T00:56:20.715Z,0.00
2023-01-21T00:57:20.707Z,0.00
2023-01-21T00:58:20.691Z,0.00
2023-01-21T00:59:20.693Z,0.00
2023-01-21T01:00:20.699Z,0.00
2023-01-21T01:01:20.817Z,0.00
2023-01-21T01:02:20.674Z,0.00
2023-01-21T01:03:20.651Z,0.00
2023-01-21T01:04:20.634Z,0.00
2023-01-21T01:05:20.646Z,0.00
2023-01-21T01:06:20.648Z,0.00
2023-01-21T01:07:20.607Z,0.00
2023-01-21T01:08:20.594Z,0.00
2023-01-21T01:09:20.588Z,0.00
2023-01-21T01:10:20.590Z,0.00
2023-01-21T01:11:20.575Z,0.00
2023-01-21T01:12:20.547Z,0.00
2023-01-21T01:13:20.535Z,0.00
2023-01-21T01:14:20.526Z,0.00
2023-01-21T01:15:20.545Z,0.00
2023-01-21T01:16:20.563Z,0.00
2023-01-21T01:17:20.494Z,0.00
2023-01-21T01:18:20.494Z,0.00
2023-01-21T01:19:20.470Z,0.00
2023-01-21T01:20:20.464Z,0.00
2023-01-21T01:21:20.469Z,0.00
2023-01-21T01:22:20.454Z,0.00
2023-01-21T01:23:20.433Z,0.00
2023-01-21T01:24:20.420Z,0.00
2023-01-21T01:25:20.414Z,0.00
2023-01-21T01:26:20.410Z,0.00
2023-01-21T01:27:20.391Z,0.00
2023-01-21T01:28:20.373Z,0.00
2023-01-21T01:29:20.368Z,0.00
2023-01-21T01:30:20.381Z,0.00
2023-01-21T01:31:20.469Z,0.00
2023-01-21T01:32:20.332Z,0.00
2023-01-21T01:33:20.323Z,0.00
2023-01-21T01:34:20.308Z,0.00
2023-01-21T01:35:20.302Z,0.00
2023-01-21T01:36:20.315Z,0.00
2023-01-21T01:37:20.290Z,0.00
2023-01-21T01:38:20.287Z,0.00
2023-01-21T01:39:20.253Z,0.00
2023-01-21T01:40:20.247Z,0.00
2023-01-21T01:41:20.262Z,0.00
2023-01-21T01:42:20.232Z,0.00
2023-01-21T01:43:20.230Z,0.00
2023-01-21T01:44:20.202Z,0.00
2023-01-21T01:45:20.234Z,0.00
2023-01-21T01:46:20.306Z,0.00
2023-01-21T01:47:20.171Z,0.00
2023-01-21T01:48:20.162Z,0.00
2023-01-21T01:49:20.158Z,0.00
2023-01-21T01:50:20.143Z,0.00
2023-01-21T01:51:20.173Z,0.00
2023-01-21T01:52:20.115Z,0.00
2023-01-21T01:53:20.117Z,0.00
2023-01-21T01:54:20.120Z,0.00
2023-01-21T01:55:20.084Z,0.00
2023-01-21T01:56:20.096Z,0.00
2023-01-21T01:57:20.069Z,0.00
2023-01-21T01:58:20.051Z,0.00
2023-01-21T01:59:20.063Z,0.00
2023-01-21T02:00:20.091Z,0.00
2023-01-21T02:01:20.051Z,0.00
2023-01-21T02:02:20.044Z,0.00
2023-01-21T02:03:20.009Z,0.00
2023-01-21T02:04:19.984Z,0.00
2023-01-21T02:05:19.979Z,0.00
2023-01-21T02:06:19.991Z,0.00
2023-01-21T02:07:19.965Z,0.00
2023-01-21T02:08:19.948Z,0.00
2023-01-21T02:09:19.961Z,0.00
2023-01-21T02:10:20.000Z,0.00
2023-01-21T02:11:19.945Z,0.00
2023-01-21T02:12:19.904Z,0.00
2023-01-21T02:13:19.899Z,0.00
2023-01-21T02:14:19.881Z,0.00
2023-01-21T02:15:19.878Z,0.00
2023-01-21T02:16:19.901Z,0.00
2023-01-21T02:17:19.857Z,0.00
2023-01-21T02:18:19.836Z,0.00
2023-01-21T02:19:19.828Z,0.00
2023-01-21T02:20:19.848Z,0.00
2023-01-21T02:21:19.809Z,0.00
2023-01-21T02:22:19.794Z,0.00
2023-01-21T02:23:19.793Z,0.00
2023-01-21T02:24:19.773Z,0.00
2023-01-21T02:25:19.798Z,0.00
2023-01-21T02:26:19.768Z,0.00
2023-01-21T02:27:26.967Z,0.00
2023-01-21T02:28:20.730Z,0.00
2023-01-21T02:29:19.724Z,0.00
2023-01-21T02:30:19.709Z,0.00
2023-01-21T02:31:19.877Z,0.00
2023-01-21T02:32:19.689Z,0.00
2023-01-21T02:33:19.684Z,0.00
2023-01-21T02:34:19.667Z,0.00
2023-01-21T02:35:19.665Z,0.00
2023-01-21T02:36:19.670Z,0.00
2023-01-21T02:37:19.639Z,0.00
2023-01-21T02:38:19.644Z,0.00
2023-01-21T02:39:19.618Z,0.00
2023-01-21T02:40:19.600Z,0.00
2023-01-21T02:41:19.597Z,0.00
2023-01-21T02:42:19.600Z,0.00
2023-01-21T02:43:19.607Z,0.00
2023-01-21T02:44:19.577Z,0.00
2023-01-21T02:45:19.559Z,0.00
2023-01-21T02:46:19.588Z,0.00
2023-01-21T02:47:19.548Z,0.00
2023-01-21T02:48:19.564Z,0.00
2023-01-21T02:49:19.513Z,0.00
2023-01-21T02:50:19.501Z,0.00
2023-01-21T02:51:19.559Z,0.00
2023-01-21T02:52:19.485Z,0.00
2023-01-21T02:53:19.465Z,0.00
2023-01-21T02:54:19.484Z,0.00
2023-01-21T02:55:19.451Z,0.00
2023-01-21T02:56:19.461Z,0.00
2023-01-21T02:57:19.424Z,0.00
2023-01-21T02:58:19.429Z,0.00
2023-01-21T02:59:19.408Z,0.00
2023-01-21T03:00:19.629Z,0.00
2023-01-21T03:01:19.404Z,0.00
2023-01-21T03:02:19.427Z,0.00
2023-01-21T03:03:19.360Z,0.00
2023-01-21T03:04:19.347Z,0.00
2023-01-21T03:05:19.361Z,0.00
2023-01-21T03:06:19.343Z,0.00
2023-01-21T03:07:19.323Z,0.00
2023-01-21T03:08:19.303Z,0.00
2023-01-21T03:09:19.326Z,0.00
2023-01-21T03:10:19.283Z,0.00
2023-01-21T03:11:19.297Z,0.00
2023-01-21T03:12:19.265Z,0.00
2023-01-21T03:13:19.254Z,0.00
2023-01-21T03:14:19.260Z,0.00
2023-01-21T03:15:19.269Z,0.00
2023-01-21T03:16:19.266Z,0.00
2023-01-21T03:17:19.208Z,0.00
2023-01-21T03:18:19.207Z,0.00
2023-01-21T03:19:19.200Z,0.00
2023-01-21T03:20:19.181Z,0.00
2023-01-21T03:21:19.187Z,0.00
2023-01-21T03:22:19.161Z,0.00
2023-01-21T03:23:19.151Z,0.00
2023-01-21T03:24:19.137Z,0.00
2023-01-21T03:25:19.150Z,0.00
2023-01-21T03:26:19.136Z,0.00
2023-01-21T03:27:19.102Z,0.00
2023-01-21T03:28:19.093Z,0.00
2023-01-21T03:29:19.084Z,0.00
2023-01-21T03:30:19.298Z,0.00
2023-01-21T03:31:19.145Z,0.00
2023-01-21T03:32:19.049Z,0.00
2023-01-21T03:33:19.046Z,0.00
2023-01-21T03:34:19.037Z,0.00
2023-01-21T03:35:19.018Z,0.00
2023-01-21T03:36:19.031Z,0.00
2023-01-21T03:37:18.998Z,0.00
2023-01-21T03:38:18.988Z,0.00
2023-01-21T03:39:18.984Z,0.00
2023-01-21T03:40:19.389Z,0.00
2023-01-21T03:41:18.954Z,0.00
2023-01-21T03:42:18.967Z,0.00
2023-01-21T03:43:18.938Z,0.00
2023-01-21T03:44:18.920Z,0.00
2023-01-21T03:45:18.997Z,0.00
2023-01-21T03:46:18.943Z,0.00
2023-01-21T03:47:18.916Z,0.00
2023-01-21T03:48:18.875Z,0.00
2023-01-21T03:49:18.870Z,0.00
2023-01-21T03:50:19.348Z,0.00
2023-01-21T03:51:18.867Z,0.00
2023-01-21T03:52:18.856Z,0.00
2023-01-21T03:53:18.831Z,0.00
2023-01-21T03:54:18.820Z,0.00
2023-01-21T03:55:18.847Z,0.00
2023-01-21T03:56:18.795Z,0.00
2023-01-21T03:57:18.807Z,0.00
2023-01-21T03:58:18.772Z,0.00
2023-01-21T03:59:18.768Z,0.00
2023-01-21T04:00:19.037Z,0.00
2023-01-21T04:01:18.865Z,0.00
2023-01-21T04:02:18.826Z,0.00
2023-01-21T04:03:18.728Z,0.00
2023-01-21T04:04:18.710Z,0.00
2023-01-21T04:05:18.700Z,0.00
2023-01-21T04:06:18.696Z,0.00
2023-01-21T04:07:18.700Z,0.00
2023-01-21T04:08:18.665Z,0.00
2023-01-21T04:09:18.658Z,0.00
2023-01-21T04:10:19.009Z,0.00
2023-01-21T04:11:18.640Z,0.00
2023-01-21T04:12:18.622Z,0.00
2023-01-21T04:13:18.625Z,0.00
2023-01-21T04:14:18.598Z,0.00
2023-01-21T04:15:18.619Z,0.00
2023-01-21T04:16:18.645Z,0.00
2023-01-21T04:17:18.573Z,0.00
2023-01-21T04:18:18.618Z,0.00
2023-01-21T04:19:18.544Z,0.00
2023-01-21T04:20:18.807Z,0.00
2023-01-21T04:21:18.524Z,0.00
2023-01-21T04:22:18.520Z,0.00
2023-01-21T04:23:18.527Z,0.00
2023-01-21T04:24:18.516Z,0.00
2023-01-21T04:25:18.499Z,0.00
2023-01-21T04:26:18.474Z,0.00
2023-01-21T04:27:18.464Z,0.00
2023-01-21T04:28:18.472Z,0.00
2023-01-21T04:29:18.445Z,0.00
2023-01-21T04:30:18.904Z,0.00
2023-01-21T04:31:18.476Z,0.00
2023-01-21T04:32:18.410Z,0.00
2023-01-21T04:33:18.413Z,0.00
2023-01-21T04:34:18.420Z,0.00
2023-01-21T04:35:18.401Z,0.00
2023-01-21T04:36:18.376Z,0.00
2023-01-21T04:37:18.363Z,0.00
2023-01-21T04:38:18.367Z,0.00
2023-01-21T04:39:18.338Z,0.00
2023-01-21T04:40:18.620Z,0.00
2023-01-21T04:41:18.317Z,0.00
2023-01-21T04:42:18.314Z,0.00
2023-01-21T04:43:18.290Z,0.00
2023-01-21T04:44:18.287Z,0.00
2023-01-21T04:45:18.270Z,0.00
2023-01-21T04:46:18.281Z,0.00
2023-01-21T04:47:18.259Z,0.00
2023-01-21T04:48:18.258Z,0.00
2023-01-21T04:49:18.228Z,0.00
2023-01-21T04:50:18.574Z,0.00
2023-01-21T04:51:18.262Z,0.00
2023-01-21T04:52:18.200Z,0.00
2023-01-21T04:53:18.205Z,0.00
2023-01-21T04:54:18.179Z,0.00
2023-01-21T04:55:18.163Z,0.00
2023-01-21T04:56:18.157Z,0.00
2023-01-21T04:57:18.164Z,0.00
2023-01-21T04:58:18.136Z,0.00
2023-01-21T04:59:18.122Z,0.00
2023-01-21T05:00:18.429Z,0.00
2023-01-21T05:01:18.209Z,0.00
2023-01-21T05:02:18.145Z,0.00
2023-01-21T05:03:18.116Z,0.00
2023-01-21T05:04:18.069Z,0.00
2023-01-21T05:05:18.059Z,0.00
2023-01-21T05:06:18.090Z,0.00
2023-01-21T05:07:20.748Z,0.00
2023-01-21T05:08:18.037Z,0.00
2023-01-21T05:09:18.037Z,0.00
2023-01-21T05:10:18.316Z,0.00
2023-01-21T05:11:18.026Z,0.00
2023-01-21T05:12:17.981Z,0.00
2023-01-21T05:13:17.971Z,0.00
2023-01-21T05:14:17.982Z,0.00
2023-01-21T05:15:17.948Z,0.00
2023-01-21T05:16:17.954Z,0.00
2023-01-21T05:17:17.949Z,0.00
2023-01-21T05:18:17.921Z,0.00
2023-01-21T05:19:17.933Z,0.00
2023-01-21T05:20:18.279Z,0.00
2023-01-21T05:21:17.890Z,0.00
2023-01-21T05:22:17.896Z,0.00
2023-01-21T05:23:17.867Z,0.00
2023-01-21T05:24:17.883Z,0.00
2023-01-21T05:25:17.844Z,0.00
2023-01-21T05:26:17.845Z,0.00
2023-01-21T05:27:17.820Z,0.00
2023-01-21T05:28:17.813Z,0.00
2023-01-21T05:29:17.798Z,0.00
2023-01-21T05:30:17.982Z,0.00
2023-01-21T05:31:17.985Z,0.00
2023-01-21T05:32:17.779Z,0.00
2023-01-21T05:33:17.767Z,0.00
2023-01-21T05:34:17.752Z,0.00
2023-01-21T05:35:17.758Z,0.00
2023-01-21T05:36:17.738Z,0.00
2023-01-21T05:37:17.723Z,0.00
2023-01-21T05:38:17.729Z,0.00
2023-01-21T05:39:17.707Z,0.00
2023-01-21T05:40:18.139Z,0.00
2023-01-21T05:41:17.672Z,0.00
2023-01-21T05:42:17.664Z,0.00
2023-01-21T05:43:17.660Z,0.00
2023-01-21T05:44:17.973Z,0.00
2023-01-21T05:45:17.662Z,0.00
2023-01-21T05:46:17.652Z,0.00
2023-01-21T05:47:17.618Z,0.00
2023-01-21T05:48:17.600Z,0.00
2023-01-21T05:49:17.605Z,0.00
2023-01-21T05:50:17.864Z,0.00
2023-01-21T05:51:17.637Z,0.00
2023-01-21T05:52:17.557Z,0.00
2023-01-21T05:53:17.567Z,0.00
2023-01-21T05:54:17.590Z,0.00
2023-01-21T05:55:17.525Z,0.00
2023-01-21T05:56:17.519Z,0.00
2023-01-21T05:57:17.500Z,0.00
2023-01-21T05:58:17.520Z,0.00
2023-01-21T05:59:17.479Z,0.00
2023-01-21T06:00:17.751Z,0.00
2023-01-21T06:01:17.462Z,0.00
2023-01-21T06:02:17.522Z,0.00
2023-01-21T06:03:17.507Z,0.00
2023-01-21T06:04:17.450Z,0.00
2023-01-21T06:05:17.442Z,0.00
2023-01-21T06:06:17.408Z,0.00
2023-01-21T06:07:17.467Z,0.00
2023-01-21T06:08:17.385Z,0.00
2023-01-21T06:09:17.408Z,0.00
2023-01-21T06:10:17.692Z,0.00
2023-01-21T06:11:17.377Z,0.00
2023-01-21T06:12:17.351Z,0.00
2023-01-21T06:13:17.332Z,0.00
2023-01-21T06:14:17.345Z,0.00
2023-01-21T06:15:17.321Z,0.00
2023-01-21T06:16:17.323Z,0.00
2023-01-21T06:17:17.288Z,0.00
2023-01-21T06:18:17.286Z,0.00
2023-01-21T06:19:17.272Z,0.00
2023-01-21T06:20:17.495Z,0.00
2023-01-21T06:21:17.263Z,0.00
2023-01-21T06:22:17.237Z,0.00
2023-01-21T06:23:17.221Z,0.00
2023-01-21T06:24:17.218Z,0.00
2023-01-21T06:25:17.204Z,0.00
2023-01-21T06:26:17.241Z,0.00
2023-01-21T06:27:17.188Z,0.00
2023-01-21T06:28:17.193Z,0.00
2023-01-21T06:29:17.186Z,0.00
2023-01-21T06:30:17.458Z,0.00
2023-01-21T06:31:17.205Z,0.00
2023-01-21T06:32:17.129Z,0.00
2023-01-21T06:33:17.116Z,0.00
2023-01-21T06:34:17.136Z,0.00
2023-01-21T06:35:17.098Z,0.00
2023-01-21T06:36:17.117Z,0.00
2023-01-21T06:37:17.074Z,0.00
2023-01-21T06:38:17.093Z,0.00
2023-01-21T06:39:17.055Z,0.00
2023-01-21T06:40:17.602Z,0.00
2023-01-21T06:41:17.051Z,0.00
2023-01-21T06:42:17.046Z,0.00
2023-01-21T06:43:17.012Z,0.00
2023-01-21T06:44:17.008Z,0.00
2023-01-21T06:45:17.000Z,0.00
2023-01-21T06:46:17.041Z,0.00
2023-01-21T06:47:16.972Z,0.00
2023-01-21T06:48:16.965Z,0.00
2023-01-21T06:49:16.946Z,0.00
2023-01-21T06:50:17.326Z,0.00
2023-01-21T06:51:17.033Z,0.00
2023-01-21T06:52:16.925Z,0.00
2023-01-21T06:53:16.924Z,0.00
2023-01-21T06:54:16.898Z,4.00
2023-01-21T06:55:16.916Z,4.00
2023-01-21T06:56:16.890Z,4.00
2023-01-21T06:57:16.930Z,0.00
2023-01-21T06:58:16.897Z,0.00
2023-01-21T06:59:16.849Z,4.00
2023-01-21T07:00:17.242Z,4.00
2023-01-21T07:01:16.836Z,4.00
2023-01-21T07:02:16.816Z,4.00
2023-01-21T07:03:16.797Z,4.00
2023-01-21T07:04:16.791Z,4.00
2023-01-21T07:05:17.107Z,8.00
2023-01-21T07:06:16.790Z,12.00
2023-01-21T07:07:16.762Z,8.00
2023-01-21T07:08:16.752Z,12.00
2023-01-21T07:09:16.755Z,12.00
2023-01-21T07:10:17.034Z,12.00
2023-01-21T07:11:16.713Z,12.00
2023-01-21T07:12:16.705Z,16.00
2023-01-21T07:13:16.695Z,16.00
2023-01-21T07:14:16.734Z,16.00
2023-01-21T07:15:16.901Z,16.00
2023-01-21T07:16:16.775Z,16.00
2023-01-21T07:17:16.665Z,16.00
2023-01-21T07:18:16.646Z,16.00
2023-01-21T07:19:16.650Z,16.00
2023-01-21T07:20:16.629Z,16.00
2023-01-21T07:21:16.612Z,20.00
2023-01-21T07:22:16.603Z,16.00
2023-01-21T07:23:16.582Z,16.00
2023-01-21T07:24:16.598Z,20.00
2023-01-21T07:25:16.900Z,20.00
2023-01-21T07:26:16.561Z,20.00
2023-01-21T07:27:16.553Z,20.00
2023-01-21T07:28:16.541Z,24.00
2023-01-21T07:29:16.524Z,24.00
2023-01-21T07:30:16.911Z,24.00
2023-01-21T07:31:16.602Z,24.00
2023-01-21T07:32:16.511Z,28.00
2023-01-21T07:33:16.475Z,24.00
2023-01-21T07:34:16.473Z,24.00
2023-01-21T07:35:16.776Z,24.00
2023-01-21T07:36:16.472Z,24.00
2023-01-21T07:37:16.448Z,24.00
2023-01-21T07:38:16.446Z,32.00
2023-01-21T07:39:16.424Z,36.00
2023-01-21T07:40:16.408Z,36.00
2023-01-21T07:41:16.418Z,40.00
2023-01-21T07:42:16.402Z,36.00
2023-01-21T07:43:16.403Z,48.00
2023-01-21T07:44:16.374Z,44.00
2023-01-21T07:45:16.690Z,40.00
2023-01-21T07:46:16.385Z,44.00
2023-01-21T07:47:16.329Z,44.00
2023-01-21T07:48:16.319Z,40.00
2023-01-21T07:49:16.325Z,48.00
2023-01-21T07:50:16.303Z,52.00
2023-01-21T07:51:16.358Z,56.00
2023-01-21T07:52:16.303Z,68.00
2023-01-21T07:53:16.270Z,60.00
2023-01-21T07:54:16.275Z,64.00
2023-01-21T07:55:16.667Z,76.00
2023-01-21T07:56:16.239Z,72.00
2023-01-21T07:57:16.229Z,84.00
2023-01-21T07:58:16.211Z,96.00
2023-01-21T07:59:16.216Z,108.00
2023-01-21T08:00:16.193Z,96.00
2023-01-21T08:01:16.186Z,76.00
2023-01-21T08:02:16.364Z,88.00
2023-01-21T08:03:16.160Z,92.00
2023-01-21T08:04:16.178Z,88.00
2023-01-21T08:05:16.487Z,84.00
2023-01-21T08:06:16.127Z,68.00
2023-01-21T08:07:16.118Z,56.00
2023-01-21T08:08:16.112Z,68.00
2023-01-21T08:09:16.111Z,80.00
2023-01-21T08:10:16.091Z,72.00
2023-01-21T08:11:16.074Z,60.00
2023-01-21T08:12:16.070Z,72.00
2023-01-21T08:13:16.050Z,68.00
2023-01-21T08:14:16.063Z,60.00
2023-01-21T08:15:16.399Z,64.00
2023-01-21T08:16:16.038Z,72.00
2023-01-21T08:17:16.014Z,84.00
2023-01-21T08:18:16.026Z,80.00
2023-01-21T08:19:16.009Z,120.00
2023-01-21T08:20:15.999Z,104.00
2023-01-21T08:21:15.976Z,88.00
2023-01-21T08:22:15.971Z,136.00
2023-01-21T08:23:15.945Z,124.00
2023-01-21T08:24:15.967Z,92.00
2023-01-21T08:25:16.118Z,128.00
2023-01-21T08:26:15.923Z,112.00
2023-01-21T08:27:15.915Z,88.00
2023-01-21T08:28:15.896Z,132.00
2023-01-21T08:29:15.914Z,140.00
2023-01-21T08:30:15.875Z,104.00
2023-01-21T08:31:15.911Z,196.00
2023-01-21T08:32:15.853Z,156.00
2023-01-21T08:33:15.874Z,128.00
2023-01-21T08:34:15.864Z,184.00
2023-01-21T08:35:16.162Z,204.00
2023-01-21T08:36:15.828Z,176.00
2023-01-21T08:37:15.800Z,196.00
2023-01-21T08:38:15.790Z,204.00
2023-01-21T08:39:15.779Z,196.00
2023-01-21T08:40:15.789Z,188.00
2023-01-21T08:41:15.757Z,196.00
2023-01-21T08:42:15.747Z,240.00
2023-01-21T08:43:15.739Z,212.00
2023-01-21T08:44:15.726Z,248.00
2023-01-21T08:45:15.727Z,228.00
2023-01-21T08:46:15.719Z,224.00
2023-01-21T08:47:15.695Z,224.00
2023-01-21T08:48:15.679Z,232.00
2023-01-21T08:49:15.697Z,224.00
2023-01-21T08:50:15.681Z,264.00
2023-01-21T08:51:15.756Z,224.00
2023-01-21T08:52:15.637Z,200.00
2023-01-21T08:53:15.627Z,260.00
2023-01-21T08:54:15.613Z,228.00
2023-01-21T08:55:15.998Z,188.00
2023-01-21T08:56:15.613Z,236.00
2023-01-21T08:57:15.582Z,268.00
2023-01-21T08:58:15.574Z,264.00
2023-01-21T08:59:15.567Z,228.00
2023-01-21T09:00:15.569Z,268.00
2023-01-21T09:01:15.654Z,268.00
2023-01-21T09:02:15.607Z,272.00
2023-01-21T09:03:15.519Z,276.00
2023-01-21T09:04:15.507Z,280.00
2023-01-21T09:05:15.979Z,276.00
2023-01-21T09:06:15.537Z,268.00
2023-01-21T09:07:15.485Z,284.00
2023-01-21T09:08:15.470Z,284.00
2023-01-21T09:09:15.453Z,280.00
2023-01-21T09:10:15.440Z,284.00
2023-01-21T09:11:15.433Z,284.00
2023-01-21T09:12:15.443Z,284.00
2023-01-21T09:13:15.416Z,288.00
2023-01-21T09:14:15.399Z,284.00
2023-01-21T09:15:15.635Z,280.00
2023-01-21T09:16:15.411Z,276.00
2023-01-21T09:17:15.400Z,276.00
2023-01-21T09:18:15.357Z,272.00
2023-01-21T09:19:15.347Z,272.00
2023-01-21T09:20:15.338Z,280.00
2023-01-21T09:21:15.329Z,280.00
2023-01-21T09:22:15.365Z,280.00
2023-01-21T09:23:15.331Z,284.00
2023-01-21T09:24:15.287Z,292.00
2023-01-21T09:25:15.559Z,288.00
2023-01-21T09:26:15.269Z,292.00
2023-01-21T09:27:15.261Z,292.00
2023-01-21T09:28:15.270Z,296.00
2023-01-21T09:29:15.237Z,300.00
2023-01-21T09:30:15.228Z,308.00
2023-01-21T09:31:15.242Z,316.00
2023-01-21T09:32:15.204Z,324.00
2023-01-21T09:33:15.216Z,320.00
2023-01-21T09:34:15.180Z,316.00
2023-01-21T09:35:15.463Z,284.00
2023-01-21T09:36:15.174Z,276.00
2023-01-21T09:37:15.150Z,288.00
2023-01-21T09:38:15.186Z,236.00
2023-01-21T09:39:15.131Z,228.00
2023-01-21T09:40:15.149Z,224.00
2023-01-21T09:41:15.109Z,236.00
2023-01-21T09:42:15.093Z,224.00
2023-01-21T09:43:15.108Z,212.00
2023-01-21T09:44:15.081Z,236.00
2023-01-21T09:45:15.645Z,260.00
2023-01-21T09:46:15.089Z,292.00
2023-01-21T09:47:15.048Z,328.00
2023-01-21T09:48:15.065Z,340.00
2023-01-21T09:49:15.025Z,360.00
2023-01-21T09:50:15.014Z,368.00
2023-01-21T09:51:15.088Z,372.00
2023-01-21T09:52:14.989Z,368.00
2023-01-21T09:53:14.983Z,364.00
2023-01-21T09:54:15.006Z,372.00
2023-01-21T09:55:15.176Z,360.00
2023-01-21T09:56:14.943Z,400.00
2023-01-21T09:57:14.942Z,420.00
2023-01-21T09:58:14.927Z,432.00
2023-01-21T09:59:14.951Z,432.00
2023-01-21T10:00:14.902Z,424.00
2023-01-21T10:01:14.937Z,436.00
2023-01-21T10:02:14.883Z,444.00
2023-01-21T10:03:14.881Z,448.00
2023-01-21T10:04:14.891Z,456.00
2023-01-21T10:05:15.298Z,456.00
2023-01-21T10:06:14.836Z,444.00
2023-01-21T10:07:14.833Z,420.00
2023-01-21T10:08:14.843Z,404.00
2023-01-21T10:09:14.814Z,392.00
2023-01-21T10:10:14.825Z,392.00
2023-01-21T10:11:14.787Z,400.00
2023-01-21T10:12:14.780Z,408.00
2023-01-21T10:13:14.785Z,416.00
2023-01-21T10:14:14.760Z,424.00
2023-01-21T10:15:14.939Z,428.00
2023-01-21T10:16:14.742Z,420.00
2023-01-21T10:17:14.728Z,404.00
2023-01-21T10:18:14.735Z,396.00
2023-01-21T10:19:14.721Z,400.00
2023-01-21T10:20:14.691Z,396.00
2023-01-21T10:21:14.678Z,388.00
2023-01-21T10:22:14.669Z,372.00
2023-01-21T10:23:14.689Z,352.00
2023-01-21T10:24:14.644Z,336.00
2023-01-21T10:25:14.947Z,328.00
2023-01-21T10:26:14.651Z,320.00
2023-01-21T10:27:14.619Z,304.00
2023-01-21T10:28:14.604Z,300.00
2023-01-21T10:29:14.617Z,300.00
2023-01-21T10:30:14.589Z,316.00
2023-01-21T10:31:14.658Z,328.00
2023-01-21T10:32:14.556Z,348.00
2023-01-21T10:33:14.547Z,364.00
2023-01-21T10:34:14.581Z,376.00
2023-01-21T10:35:14.680Z,392.00
2023-01-21T10:36:14.530Z,400.00
2023-01-21T10:37:14.516Z,408.00
2023-01-21T10:38:14.490Z,420.00
2023-01-21T10:39:14.514Z,424.00
2023-01-21T10:40:14.477Z,428.00
2023-01-21T10:41:14.462Z,432.00
2023-01-21T10:42:14.476Z,440.00
2023-01-21T10:43:14.442Z,444.00
2023-01-21T10:44:14.450Z,440.00
2023-01-21T10:45:14.644Z,452.00
2023-01-21T10:46:14.450Z,464.00
2023-01-21T10:47:14.397Z,476.00
2023-01-21T10:48:14.391Z,480.00
2023-01-21T10:49:14.394Z,484.00
2023-01-21T10:50:14.374Z,488.00
2023-01-21T10:51:14.382Z,480.00
2023-01-21T10:52:14.339Z,472.00
2023-01-21T10:53:14.357Z,468.00
2023-01-21T10:54:14.356Z,468.00
2023-01-21T10:55:14.423Z,492.00
2023-01-21T10:56:14.297Z,520.00
2023-01-21T10:57:14.293Z,556.00
2023-01-21T10:58:14.301Z,556.00
2023-01-21T10:59:14.266Z,572.00
2023-01-21T11:00:14.278Z,580.00
2023-01-21T11:01:14.339Z,604.00
2023-01-21T11:02:14.273Z,624.00
2023-01-21T11:03:14.228Z,624.00
2023-01-21T11:04:14.214Z,652.00
2023-01-21T11:05:14.454Z,660.00
2023-01-21T11:06:14.203Z,656.00
2023-01-21T11:07:14.200Z,644.00
2023-01-21T11:08:14.171Z,644.00
2023-01-21T11:09:14.268Z,636.00
2023-01-21T11:10:14.152Z,624.00
2023-01-21T11:11:14.141Z,624.00
2023-01-21T11:12:14.125Z,600.00
2023-01-21T11:13:14.152Z,616.00
2023-01-21T11:14:14.146Z,628.00
2023-01-21T11:15:14.109Z,632.00
2023-01-21T11:16:14.109Z,640.00
2023-01-21T11:17:14.077Z,648.00
2023-01-21T11:18:14.062Z,644.00
2023-01-21T11:19:14.079Z,648.00
2023-01-21T11:20:14.079Z,648.00
2023-01-21T11:21:14.028Z,648.00
2023-01-21T11:22:14.028Z,656.00
2023-01-21T11:23:14.013Z,660.00
2023-01-21T11:24:14.000Z,660.00
2023-01-21T11:25:14.080Z,680.00
2023-01-21T11:26:13.971Z,704.00
2023-01-21T11:27:13.967Z,716.00
2023-01-21T11:28:13.954Z,700.00
2023-01-21T11:29:13.945Z,696.00
2023-01-21T11:30:37.069Z,680.00
2023-01-21T11:31:15.030Z,664.00
2023-01-21T11:32:13.989Z,668.00
2023-01-21T11:33:13.931Z,672.00
2023-01-21T11:34:13.892Z,672.00
2023-01-21T11:35:13.882Z,656.00
2023-01-21T11:36:13.888Z,648.00
2023-01-21T11:37:13.861Z,636.00
2023-01-21T11:38:13.867Z,612.00
2023-01-21T11:39:13.851Z,596.00
2023-01-21T11:40:13.821Z,584.00
2023-01-21T11:41:13.829Z,576.00
2023-01-21T11:42:13.826Z,572.00
2023-01-21T11:43:13.820Z,564.00
2023-01-21T11:44:13.794Z,544.00
2023-01-21T11:45:13.777Z,520.00
2023-01-21T11:46:13.838Z,504.00
2023-01-21T11:47:13.761Z,488.00
2023-01-21T11:48:13.757Z,472.00
2023-01-21T11:49:13.737Z,460.00
2023-01-21T11:50:13.761Z,452.00
2023-01-21T11:51:13.800Z,440.00
2023-01-21T11:52:13.696Z,428.00
2023-01-21T11:53:13.744Z,420.00
2023-01-21T11:54:13.684Z,416.00
2023-01-21T11:55:13.698Z,412.00
2023-01-21T11:56:13.653Z,420.00
2023-01-21T11:57:13.647Z,420.00
2023-01-21T11:58:13.653Z,432.00
2023-01-21T11:59:13.628Z,428.00
2023-01-21T12:00:13.644Z,428.00
2023-01-21T12:01:13.609Z,424.00
2023-01-21T12:02:13.612Z,424.00
2023-01-21T12:03:13.602Z,428.00
2023-01-21T12:04:13.579Z,436.00
2023-01-21T12:05:13.593Z,448.00
2023-01-21T12:06:13.551Z,452.00
2023-01-21T12:07:13.550Z,456.00
2023-01-21T12:08:13.567Z,460.00
2023-01-21T12:09:13.525Z,460.00
2023-01-21T12:10:13.709Z,464.00
2023-01-21T12:11:13.509Z,464.00
2023-01-21T12:12:13.487Z,468.00
2023-01-21T12:13:13.487Z,468.00
2023-01-21T12:14:13.466Z,472.00
2023-01-21T12:15:13.498Z,468.00
2023-01-21T12:16:13.539Z,468.00
2023-01-21T12:17:13.448Z,460.00
2023-01-21T12:18:13.453Z,464.00
2023-01-21T12:19:13.422Z,472.00
2023-01-21T12:20:13.419Z,472.00
2023-01-21T12:21:13.397Z,480.00
2023-01-21T12:22:13.401Z,480.00
2023-01-21T12:23:13.374Z,484.00
2023-01-21T12:24:13.365Z,484.00
2023-01-21T12:25:13.350Z,476.00
2023-01-21T12:26:13.338Z,468.00
2023-01-21T12:27:13.353Z,460.00
2023-01-21T12:28:13.352Z,448.00
2023-01-21T12:29:13.314Z,448.00
2023-01-21T12:30:13.303Z,460.00
2023-01-21T12:31:13.451Z,452.00
2023-01-21T12:32:13.314Z,448.00
2023-01-21T12:33:13.288Z,440.00
2023-01-21T12:34:13.299Z,424.00
2023-01-21T12:35:13.261Z,420.00
2023-01-21T12:36:13.230Z,404.00
2023-01-21T12:37:13.235Z,392.00
2023-01-21T12:38:13.215Z,376.00
2023-01-21T12:39:13.204Z,352.00
2023-01-21T12:40:13.211Z,328.00
2023-01-21T12:41:13.187Z,312.00
2023-01-21T12:42:13.169Z,296.00
2023-01-21T12:43:13.194Z,292.00
2023-01-21T12:44:13.154Z,280.00
2023-01-21T12:45:13.141Z,276.00
2023-01-21T12:46:13.167Z,272.00
2023-01-21T12:47:13.123Z,272.00
2023-01-21T12:48:13.133Z,280.00
2023-01-21T12:49:13.105Z,284.00
2023-01-21T12:50:13.108Z,288.00
2023-01-21T12:51:13.127Z,296.00
2023-01-21T12:52:13.070Z,296.00
2023-01-21T12:53:13.059Z,292.00
2023-01-21T12:54:13.066Z,276.00
2023-01-21T12:55:13.045Z,240.00
2023-01-21T12:56:13.023Z,272.00
2023-01-21T12:57:13.028Z,260.00